This is the latest recevied weather packets stored in our database for station/object OM6ABF-12. If no packets are shown the sender has not sent any weather packets the latest 10 day(s).
| Time | Temp. | Humidity | Pressure | Rain* | Wind** | Luminosity | Snow |
|---|---|---|---|---|---|---|---|
| 1777103533 | 11.67° C | 43% | 1023.4 hPa | - | - | - | - |
| 1777102576 | 11.67° C | 44% | 1023.5 hPa | - | - | - | - |
| 1777101618 | 11.67° C | 47% | 1023.5 hPa | - | - | - | - |
| 1777100660 | 9.44° C | 52% | 1023.4 hPa | - | - | - | - |
| 1777099702 | 10° C | 51% | 1023.4 hPa | - | - | - | - |
| 1777098743 | 7.78° C | 58% | 1023.3 hPa | - | - | - | - |
| 1777097784 | 6.11° C | 65% | 1023.3 hPa | - | - | - | - |
| 1777096827 | 3.89° C | 72% | 1023.3 hPa | - | - | - | - |
| 1777095868 | 3.89° C | 73% | 1023.2 hPa | - | - | - | - |
| 1777094911 | 3.89° C | 73% | 1023.3 hPa | - | - | - | - |
| 1777093954 | 3.33° C | 74% | 1023.2 hPa | - | - | - | - |
| 1777092998 | 3.33° C | 75% | 1023 hPa | - | - | - | - |
| 1777092042 | 3.33° C | 75% | 1023 hPa | - | - | - | - |
| 1777091085 | 2.78° C | 76% | 1022.9 hPa | - | - | - | - |
| 1777090128 | 2.78° C | 76% | 1022.9 hPa | - | - | - | - |
| 1777089171 | 2.78° C | 76% | 1022.9 hPa | - | - | - | - |
| 1777088214 | 2.78° C | 76% | 1022.9 hPa | - | - | - | - |
| 1777087258 | 2.78° C | 76% | 1023 hPa | - | - | - | - |
| 1777086301 | 2.78° C | 75% | 1023 hPa | - | - | - | - |
| 1777085344 | 2.78° C | 74% | 1023 hPa | - | - | - | - |
| 1777084387 | 2.78° C | 73% | 1023.1 hPa | - | - | - | - |
| 1777083430 | 3.33° C | 72% | 1023.1 hPa | - | - | - | - |
| 1777082473 | 3.33° C | 71% | 1023.3 hPa | - | - | - | - |
| 1777081515 | 3.33° C | 70% | 1023.2 hPa | - | - | - | - |
| 1777080560 | 3.89° C | 69% | 1023.2 hPa | - | - | - | - |
* Rain since midnight (hover to see other rain measurements)
** Current wind speed in m/s (hover to see current wind gust speed)